• Join FlightAware (Why Join?)
  • Login
  • US Flag 
06:50PM EDT


 

Airport Tracker/Info


-or-


 

Live Flight TrackerFlight Track Log ✈ SKW5428 ✈ 15-May-2013 ✈ KPDX - KSEA

Flight Track Log - Related Links

Times and Time Zones

All times are in EDT time to prevent confusion due to time zone crossing. See the SKW5428 flight status page for this flight to view local times or setup timezone preferences in your user account.

Time Position Orientation Groundspeed Altitude Reporting Facility
EDT Latitude Longitude Course Direction KTS MPH feet Rate Location/Type
12:56PM 45.5931 -122.5922 350° North 133 153 600  Level Seattle Center
12:57PM 45.6256 -122.6250 325° Northwest 181 208 1,900 1,500 Climbing Seattle Center
12:58PM 45.6731 -122.6675 328° Northwest 197 227 3,500 1,440 Climbing Seattle Center
12:58PM 45.6906 -122.6783 337° Northwest 190 219 4,100 1,500 Climbing Seattle Center
12:59PM 45.7472 -122.6858 355° North 202 232 5,800 1,620 Climbing Seattle Center
01:00PM 45.9482 -122.6396 352° North  Level FlightAware Approximate
01:00PM 45.8014 -122.6961 352° North 198 228 7,500  Level Seattle Center
01:01PM 46.0398 -122.6599 350° North  Level FlightAware Approximate
01:01PM 45.8597 -122.7036 355° North 207 238 9,100  Level Seattle Center
01:02PM 45.9194 -122.7142 353° North 214 246 10,500 1,620 Climbing Seattle Center
01:03PM 45.9956 -122.7292 352° North 229 264 12,500 1,680 Climbing Seattle Center
01:04PM 46.0569 -122.7375 355° North 225 259 14,000 1,380 Climbing Seattle Center
01:05PM 46.1206 -122.7506 352° North 230 265 15,400 1,020 Climbing Seattle Center
01:06PM 46.1844 -122.7600 354° North 234 269 16,100 240 Climbing Seattle Center
01:07PM 46.2606 -122.7747 352° North 253 291 16,000 -60 Descending Seattle Center
01:08PM 46.3261 -122.7858 353° North 242 278 16,000  Level Seattle Center
01:09PM 46.3908 -122.7992 352° North 237 273 16,000  Level Seattle Center
01:10PM 46.4547 -122.8133 351° North 235 270 16,000  Level Seattle Center
01:11PM 46.5169 -122.8228 354° North 231 266 16,000  Level Seattle Center
01:12PM 46.5794 -122.8322 354° North 227 261 16,000  Level Seattle Center
01:13PM 46.6428 -122.8428 353° North 230 265 16,100  Climbing Seattle Center
01:14PM 46.7044 -122.8550 352° North 227 261 16,100 -600 Level Seattle Center
01:15PM 46.7772 -122.8664 354° North 229 264 15,000 -1,440 Descending Seattle Center
01:16PM 46.8186 -122.8756 351° North 240 276 13,800 -2,220 Descending Seattle Center
01:16PM 46.8531 -122.8814 353° North 256 295 12,800 -2,340 Descending Seattle Center
01:17PM 46.8981 -122.8914 351° North 272 313 11,500 -2,220 Descending Seattle Center
01:17PM 46.9264 -122.8775 19° North 270 311 10,600 -1,380 Descending Seattle Center
01:18PM 46.9681 -122.8344 35° Northeast 275 316 10,000 -600 Descending Seattle Center
01:19PM 46.9869 -122.8136 37° Northeast 267 307 10,000  Level Seattle Center
01:19PM 47.0261 -122.7742 34° Northeast 256 295 10,000  Level Seattle Center
01:20PM 47.0431 -122.7550 38° Northeast 248 285 10,000  Level Seattle Center
01:20PM 47.0750 -122.7219 35° Northeast 237 273 10,000  Level Seattle Center
01:21PM 47.0964 -122.6981 37° Northeast 238 274 10,000  Level Seattle Center
01:21PM 47.1272 -122.6644 37° Northeast 232 267 10,000  Level Seattle Center
01:22PM 47.1531 -122.6389 34° Northeast 234 269 10,000  Level Seattle Center
01:22PM 47.1839 -122.6078 34° Northeast 231 266 10,000  Level Seattle Center
01:23PM 47.2050 -122.5839 38° Northeast 232 267 10,000  Level Seattle Center
01:23PM 47.2328 -122.5553 35° Northeast 230 265 10,000  Level Seattle Center
01:24PM 47.2564 -122.5294 37° Northeast 230 265 10,000  Level Seattle Center
01:24PM 47.2867 -122.4964 37° Northeast 229 264 10,000 -420 Level Seattle Center
01:25PM 47.3119 -122.4850 17° North 237 273 9,600 -1,260 Descending Seattle Center
01:25PM 47.3678 -122.4914 356° North 245 282 8,500 -1,440 Descending Seattle Center
01:26PM 47.4317 -122.4989 355° North 255 293 7,200 -1,200 Descending Seattle Center
01:27PM 47.4542 -122.5008 357° North 251 289 7,100 -180 Descending Seattle Center
01:27PM 47.5050 -122.5078 355° North 243 280 7,000 -60 Descending Seattle Center
01:28PM 47.5703 -122.5017 North 227 261 7,000  Level Seattle Center
01:29PM 47.6319 -122.4908 North 223 257 7,000 -60 Level Seattle Center
01:31PM 47.7067 -122.4797 North 220 253 6,900 -420 Descending Seattle Center
01:31PM 47.7458 -122.4578 21° North 219 252 6,200 -1,140 Descending Seattle Center
01:32PM 47.7500 -122.4328 76° East 217 250 5,800 -1,020 Descending Seattle Center
01:32PM 47.7531 -122.3714 86° East 205 236 5,200 -900 Descending Seattle Center
01:33PM 47.7439 -122.3469 119° Southeast 197 227 4,900 -480 Descending Seattle Center
01:33PM 47.7197 -122.3272 151° Southeast 186 214 4,800 -120 Descending Seattle Center
01:34PM 47.6956 -122.3164 163° South 190 219 4,800  Level Seattle Center
01:34PM 47.6725 -122.3172 181° South 189 217 4,800 -240 Level Seattle Center
01:35PM 47.6444 -122.3153 177° South 187 215 4,600 -900 Descending Seattle Center
01:35PM 47.6192 -122.3172 183° South 188 216 3,900 -1,320 Descending Seattle Center
01:36PM 47.5908 -122.3175 180° South 192 221 3,300 -1,320 Descending Seattle Center
01:36PM 47.5639 -122.3181 181° South 188 216 2,600 -1,020 Descending Seattle Center
01:37PM 47.5408 -122.3172 179° South 181 208 2,300 -600 Descending Seattle Center